sensor_id;sensor_type;location;lat;lon;timestamp;P1;durP1;ratioP1;P2;durP2;ratioP2
8042;SDS011;4064;48.132;11.366;2023-02-15T00:02:15;38.90;;;19.73;;
8042;SDS011;4064;48.132;11.366;2023-02-15T00:04:41;90.77;;;22.03;;
8042;SDS011;4064;48.132;11.366;2023-02-15T00:07:16;114.32;;;23.40;;
8042;SDS011;4064;48.132;11.366;2023-02-15T00:09:44;43.92;;;18.75;;
8042;SDS011;4064;48.132;11.366;2023-02-15T00:12:11;131.18;;;23.20;;
8042;SDS011;4064;48.132;11.366;2023-02-15T00:14:36;114.90;;;21.13;;
8042;SDS011;4064;48.132;11.366;2023-02-15T00:17:02;59.30;;;20.90;;
8042;SDS011;4064;48.132;11.366;2023-02-15T00:19:28;116.83;;;21.60;;
8042;SDS011;4064;48.132;11.366;2023-02-15T00:21:54;120.77;;;23.20;;
8042;SDS011;4064;48.132;11.366;2023-02-15T00:24:20;50.00;;;19.48;;
8042;SDS011;4064;48.132;11.366;2023-02-15T00:26:46;85.90;;;20.93;;
8042;SDS011;4064;48.132;11.366;2023-02-15T00:29:13;73.82;;;20.50;;
8042;SDS011;4064;48.132;11.366;2023-02-15T00:31:39;60.03;;;20.60;;
8042;SDS011;4064;48.132;11.366;2023-02-15T00:36:38;95.90;;;22.40;;
8042;SDS011;4064;48.132;11.366;2023-02-15T00:39:04;80.72;;;21.05;;
8042;SDS011;4064;48.132;11.366;2023-02-15T00:41:31;53.63;;;18.90;;
8042;SDS011;4064;48.132;11.366;2023-02-15T00:43:57;56.70;;;19.52;;
8042;SDS011;4064;48.132;11.366;2023-02-15T00:46:22;64.30;;;18.73;;
8042;SDS011;4064;48.132;11.366;2023-02-15T00:48:48;119.10;;;21.17;;
8042;SDS011;4064;48.132;11.366;2023-02-15T00:51:14;51.37;;;20.03;;
8042;SDS011;4064;48.132;11.366;2023-02-15T00:53:39;83.93;;;21.50;;
8042;SDS011;4064;48.132;11.366;2023-02-15T00:56:05;50.37;;;18.90;;
8042;SDS011;4064;48.132;11.366;2023-02-15T00:58:31;56.87;;;20.43;;
8042;SDS011;4064;48.132;11.366;2023-02-15T01:01:02;64.67;;;20.97;;
8042;SDS011;4064;48.132;11.366;2023-02-15T01:03:30;50.40;;;19.52;;
8042;SDS011;4064;48.132;11.366;2023-02-15T01:05:55;55.00;;;21.10;;
8042;SDS011;4064;48.132;11.366;2023-02-15T01:08:21;58.23;;;19.20;;
8042;SDS011;4064;48.132;11.366;2023-02-15T01:10:46;37.17;;;19.23;;
8042;SDS011;4064;48.132;11.366;2023-02-15T01:13:13;96.17;;;21.87;;
8042;SDS011;4064;48.132;11.366;2023-02-15T01:15:39;79.13;;;22.52;;
8042;SDS011;4064;48.132;11.366;2023-02-15T01:18:05;55.30;;;21.57;;
8042;SDS011;4064;48.132;11.366;2023-02-15T01:20:33;63.30;;;21.40;;
8042;SDS011;4064;48.132;11.366;2023-02-15T01:23:01;68.78;;;20.15;;
8042;SDS011;4064;48.132;11.366;2023-02-15T01:25:27;56.13;;;18.58;;
8042;SDS011;4064;48.132;11.366;2023-02-15T01:27:53;61.43;;;21.40;;
8042;SDS011;4064;48.132;11.366;2023-02-15T01:30:19;62.07;;;18.93;;
8042;SDS011;4064;48.132;11.366;2023-02-15T01:32:44;99.07;;;21.97;;
8042;SDS011;4064;48.132;11.366;2023-02-15T01:35:10;43.43;;;20.03;;
8042;SDS011;4064;48.132;11.366;2023-02-15T01:37:36;87.68;;;23.35;;
8042;SDS011;4064;48.132;11.366;2023-02-15T01:40:06;121.28;;;23.30;;
8042;SDS011;4064;48.132;11.366;2023-02-15T01:42:33;41.83;;;18.50;;
8042;SDS011;4064;48.132;11.366;2023-02-15T01:45:00;63.70;;;19.23;;
8042;SDS011;4064;48.132;11.366;2023-02-15T01:47:43;98.63;;;21.45;;
8042;SDS011;4064;48.132;11.366;2023-02-15T01:52:42;101.40;;;21.10;;
8042;SDS011;4064;48.132;11.366;2023-02-15T01:55:13;35.92;;;16.92;;
8042;SDS011;4064;48.132;11.366;2023-02-15T01:57:40;64.05;;;19.77;;
8042;SDS011;4064;48.132;11.366;2023-02-15T02:00:07;81.82;;;18.60;;
8042;SDS011;4064;48.132;11.366;2023-02-15T02:02:33;119.30;;;22.67;;
8042;SDS011;4064;48.132;11.366;2023-02-15T02:05:01;144.02;;;23.65;;
8042;SDS011;4064;48.132;11.366;2023-02-15T02:07:32;78.20;;;21.48;;
8042;SDS011;4064;48.132;11.366;2023-02-15T02:10:11;98.63;;;19.63;;
8042;SDS011;4064;48.132;11.366;2023-02-15T02:12:39;69.15;;;20.25;;
8042;SDS011;4064;48.132;11.366;2023-02-15T02:15:07;67.28;;;19.88;;
8042;SDS011;4064;48.132;11.366;2023-02-15T02:32:00;131.77;;;21.45;;
8042;SDS011;4064;48.132;11.366;2023-02-15T02:34:37;55.33;;;18.50;;
8042;SDS011;4064;48.132;11.366;2023-02-15T02:42:44;90.05;;;19.73;;
8042;SDS011;4064;48.132;11.366;2023-02-15T02:45:38;47.72;;;16.55;;
8042;SDS011;4064;48.132;11.366;2023-02-15T02:48:16;105.20;;;21.65;;
8042;SDS011;4064;48.132;11.366;2023-02-15T02:50:46;141.98;;;21.73;;
8042;SDS011;4064;48.132;11.366;2023-02-15T02:53:12;88.07;;;21.70;;
8042;SDS011;4064;48.132;11.366;2023-02-15T02:58:17;37.72;;;17.33;;
8042;SDS011;4064;48.132;11.366;2023-02-15T03:03:30;68.72;;;18.98;;
8042;SDS011;4064;48.132;11.366;2023-02-15T03:06:02;45.75;;;18.10;;
8042;SDS011;4064;48.132;11.366;2023-02-15T03:08:38;61.60;;;19.48;;
8042;SDS011;4064;48.132;11.366;2023-02-15T03:11:08;115.70;;;21.25;;
8042;SDS011;4064;48.132;11.366;2023-02-15T03:13:34;44.83;;;18.80;;
8042;SDS011;4064;48.132;11.366;2023-02-15T03:16:00;65.57;;;17.80;;
8042;SDS011;4064;48.132;11.366;2023-02-15T03:19:08;87.45;;;19.35;;
8042;SDS011;4064;48.132;11.366;2023-02-15T03:21:51;104.03;;;20.25;;
8042;SDS011;4064;48.132;11.366;2023-02-15T03:24:38;67.78;;;18.50;;
8042;SDS011;4064;48.132;11.366;2023-02-15T03:27:19;68.07;;;19.23;;
8042;SDS011;4064;48.132;11.366;2023-02-15T03:29:52;58.05;;;18.48;;
8042;SDS011;4064;48.132;11.366;2023-02-15T03:32:20;134.82;;;23.45;;
8042;SDS011;4064;48.132;11.366;2023-02-15T03:34:46;107.68;;;20.27;;
8042;SDS011;4064;48.132;11.366;2023-02-15T03:42:52;86.65;;;18.40;;
8042;SDS011;4064;48.132;11.366;2023-02-15T03:45:24;44.47;;;15.88;;
8042;SDS011;4064;48.132;11.366;2023-02-15T03:47:53;127.10;;;20.70;;
8042;SDS011;4064;48.132;11.366;2023-02-15T03:50:21;109.63;;;19.13;;
8042;SDS011;4064;48.132;11.366;2023-02-15T03:53:11;82.03;;;17.58;;
8042;SDS011;4064;48.132;11.366;2023-02-15T03:55:40;59.88;;;16.77;;
8042;SDS011;4064;48.132;11.366;2023-02-15T03:58:06;80.63;;;18.83;;
8042;SDS011;4064;48.132;11.366;2023-02-15T04:01:03;66.80;;;18.95;;
8042;SDS011;4064;48.132;11.366;2023-02-15T04:03:56;57.50;;;15.80;;
8042;SDS011;4064;48.132;11.366;2023-02-15T04:06:25;50.28;;;17.00;;
8042;SDS011;4064;48.132;11.366;2023-02-15T04:08:50;43.13;;;16.90;;
8042;SDS011;4064;48.132;11.366;2023-02-15T04:11:34;90.40;;;18.88;;
8042;SDS011;4064;48.132;11.366;2023-02-15T04:14:00;61.67;;;16.87;;
8042;SDS011;4064;48.132;11.366;2023-02-15T04:16:45;54.22;;;15.57;;
8042;SDS011;4064;48.132;11.366;2023-02-15T04:19:11;64.13;;;18.37;;
8042;SDS011;4064;48.132;11.366;2023-02-15T04:21:55;89.72;;;17.45;;
8042;SDS011;4064;48.132;11.366;2023-02-15T04:24:40;61.88;;;18.80;;
8042;SDS011;4064;48.132;11.366;2023-02-15T04:27:24;44.95;;;17.05;;
8042;SDS011;4064;48.132;11.366;2023-02-15T04:29:49;72.73;;;19.73;;
8042;SDS011;4064;48.132;11.366;2023-02-15T04:32:15;38.10;;;15.80;;
8042;SDS011;4064;48.132;11.366;2023-02-15T04:34:40;31.97;;;16.70;;
8042;SDS011;4064;48.132;11.366;2023-02-15T04:37:06;46.40;;;17.40;;
8042;SDS011;4064;48.132;11.366;2023-02-15T04:39:32;49.23;;;17.77;;
8042;SDS011;4064;48.132;11.366;2023-02-15T04:41:57;64.83;;;16.17;;
8042;SDS011;4064;48.132;11.366;2023-02-15T04:44:23;43.90;;;16.80;;
8042;SDS011;4064;48.132;11.366;2023-02-15T04:46:48;46.93;;;17.67;;
8042;SDS011;4064;48.132;11.366;2023-02-15T04:49:14;68.30;;;18.17;;
8042;SDS011;4064;48.132;11.366;2023-02-15T04:51:40;97.90;;;19.07;;
8042;SDS011;4064;48.132;11.366;2023-02-15T04:54:06;46.80;;;16.30;;
8042;SDS011;4064;48.132;11.366;2023-02-15T04:56:31;50.90;;;17.70;;
8042;SDS011;4064;48.132;11.366;2023-02-15T04:58:59;31.77;;;17.92;;
8042;SDS011;4064;48.132;11.366;2023-02-15T05:01:25;38.53;;;15.07;;
8042;SDS011;4064;48.132;11.366;2023-02-15T05:03:51;36.63;;;17.00;;
8042;SDS011;4064;48.132;11.366;2023-02-15T05:06:17;49.73;;;16.93;;
8042;SDS011;4064;48.132;11.366;2023-02-15T05:08:43;51.57;;;17.80;;
8042;SDS011;4064;48.132;11.366;2023-02-15T05:11:08;29.33;;;16.40;;
8042;SDS011;4064;48.132;11.366;2023-02-15T05:13:34;32.87;;;15.63;;
8042;SDS011;4064;48.132;11.366;2023-02-15T05:15:59;65.27;;;16.60;;
8042;SDS011;4064;48.132;11.366;2023-02-15T05:18:25;59.77;;;19.10;;
8042;SDS011;4064;48.132;11.366;2023-02-15T05:20:50;51.27;;;18.03;;
8042;SDS011;4064;48.132;11.366;2023-02-15T05:23:16;61.47;;;17.73;;
8042;SDS011;4064;48.132;11.366;2023-02-15T05:25:46;43.87;;;15.63;;
8042;SDS011;4064;48.132;11.366;2023-02-15T05:28:31;44.55;;;15.55;;
8042;SDS011;4064;48.132;11.366;2023-02-15T05:33:38;43.20;;;15.35;;
8042;SDS011;4064;48.132;11.366;2023-02-15T05:36:05;56.80;;;18.30;;
8042;SDS011;4064;48.132;11.366;2023-02-15T05:38:31;63.28;;;16.50;;
8042;SDS011;4064;48.132;11.366;2023-02-15T05:40:58;47.88;;;16.38;;
8042;SDS011;4064;48.132;11.366;2023-02-15T05:43:24;64.78;;;17.67;;
8042;SDS011;4064;48.132;11.366;2023-02-15T05:45:51;86.20;;;20.23;;
8042;SDS011;4064;48.132;11.366;2023-02-15T05:48:18;29.08;;;13.82;;
8042;SDS011;4064;48.132;11.366;2023-02-15T05:50:45;28.95;;;15.38;;
8042;SDS011;4064;48.132;11.366;2023-02-15T05:53:11;48.63;;;14.37;;
8042;SDS011;4064;48.132;11.366;2023-02-15T05:55:40;52.97;;;15.10;;
8042;SDS011;4064;48.132;11.366;2023-02-15T05:58:06;37.13;;;15.10;;
8042;SDS011;4064;48.132;11.366;2023-02-15T06:00:32;40.45;;;16.58;;
8042;SDS011;4064;48.132;11.366;2023-02-15T06:02:58;37.30;;;14.73;;
8042;SDS011;4064;48.132;11.366;2023-02-15T06:05:24;27.17;;;15.20;;
8042;SDS011;4064;48.132;11.366;2023-02-15T06:07:50;43.93;;;15.40;;
8042;SDS011;4064;48.132;11.366;2023-02-15T06:10:15;45.80;;;15.97;;
8042;SDS011;4064;48.132;11.366;2023-02-15T06:12:41;64.07;;;16.50;;
8042;SDS011;4064;48.132;11.366;2023-02-15T06:15:08;39.25;;;14.68;;
8042;SDS011;4064;48.132;11.366;2023-02-15T06:17:34;37.63;;;15.80;;
8042;SDS011;4064;48.132;11.366;2023-02-15T06:19:59;51.57;;;16.37;;
8042;SDS011;4064;48.132;11.366;2023-02-15T06:22:25;18.67;;;14.03;;
8042;SDS011;4064;48.132;11.366;2023-02-15T06:24:50;35.70;;;15.20;;
8042;SDS011;4064;48.132;11.366;2023-02-15T06:27:16;37.27;;;15.50;;
8042;SDS011;4064;48.132;11.366;2023-02-15T06:29:42;64.73;;;16.50;;
8042;SDS011;4064;48.132;11.366;2023-02-15T06:32:07;21.53;;;12.70;;
8042;SDS011;4064;48.132;11.366;2023-02-15T06:34:33;65.53;;;18.03;;
8042;SDS011;4064;48.132;11.366;2023-02-15T06:36:58;20.87;;;14.57;;
8042;SDS011;4064;48.132;11.366;2023-02-15T06:39:24;26.17;;;14.17;;
8042;SDS011;4064;48.132;11.366;2023-02-15T06:41:50;27.50;;;14.73;;
8042;SDS011;4064;48.132;11.366;2023-02-15T06:44:16;26.52;;;14.63;;
8042;SDS011;4064;48.132;11.366;2023-02-15T06:46:42;81.97;;;17.23;;
8042;SDS011;4064;48.132;11.366;2023-02-15T06:49:07;47.00;;;16.33;;
8042;SDS011;4064;48.132;11.366;2023-02-15T06:51:33;15.43;;;13.70;;
8042;SDS011;4064;48.132;11.366;2023-02-15T06:53:59;74.80;;;17.47;;
8042;SDS011;4064;48.132;11.366;2023-02-15T06:56:25;19.60;;;15.87;;
8042;SDS011;4064;48.132;11.366;2023-02-15T06:58:51;26.07;;;15.97;;
8042;SDS011;4064;48.132;11.366;2023-02-15T07:01:17;20.73;;;15.23;;
8042;SDS011;4064;48.132;11.366;2023-02-15T07:03:43;20.07;;;13.37;;
8042;SDS011;4064;48.132;11.366;2023-02-15T07:06:09;18.33;;;14.97;;
8042;SDS011;4064;48.132;11.366;2023-02-15T07:08:36;29.90;;;16.13;;
8042;SDS011;4064;48.132;11.366;2023-02-15T07:11:03;22.02;;;15.20;;
8042;SDS011;4064;48.132;11.366;2023-02-15T07:13:48;26.83;;;14.95;;
8042;SDS011;4064;48.132;11.366;2023-02-15T07:16:13;17.03;;;12.70;;
8042;SDS011;4064;48.132;11.366;2023-02-15T07:18:39;15.47;;;12.53;;
8042;SDS011;4064;48.132;11.366;2023-02-15T07:21:05;15.47;;;12.70;;
8042;SDS011;4064;48.132;11.366;2023-02-15T07:23:34;14.13;;;12.38;;
8042;SDS011;4064;48.132;11.366;2023-02-15T07:26:00;14.77;;;13.30;;
8042;SDS011;4064;48.132;11.366;2023-02-15T07:28:26;16.25;;;13.30;;
8042;SDS011;4064;48.132;11.366;2023-02-15T07:30:52;14.73;;;13.23;;
8042;SDS011;4064;48.132;11.366;2023-02-15T07:33:18;16.07;;;13.50;;
8042;SDS011;4064;48.132;11.366;2023-02-15T07:35:56;13.18;;;11.55;;
8042;SDS011;4064;48.132;11.366;2023-02-15T07:38:23;14.90;;;13.13;;
8042;SDS011;4064;48.132;11.366;2023-02-15T07:40:49;14.32;;;12.82;;
8042;SDS011;4064;48.132;11.366;2023-02-15T07:43:14;15.13;;;12.60;;
8042;SDS011;4064;48.132;11.366;2023-02-15T07:45:40;14.00;;;12.60;;
8042;SDS011;4064;48.132;11.366;2023-02-15T07:48:06;14.67;;;13.07;;
8042;SDS011;4064;48.132;11.366;2023-02-15T07:50:32;15.02;;;12.30;;
8042;SDS011;4064;48.132;11.366;2023-02-15T07:52:58;15.20;;;11.98;;
8042;SDS011;4064;48.132;11.366;2023-02-15T07:55:27;14.50;;;12.85;;
8042;SDS011;4064;48.132;11.366;2023-02-15T07:57:52;17.80;;;14.07;;
8042;SDS011;4064;48.132;11.366;2023-02-15T08:00:19;18.25;;;13.50;;
8042;SDS011;4064;48.132;11.366;2023-02-15T08:02:50;14.93;;;12.32;;
8042;SDS011;4064;48.132;11.366;2023-02-15T08:05:37;16.50;;;13.05;;
8042;SDS011;4064;48.132;11.366;2023-02-15T08:08:03;15.05;;;13.48;;
8042;SDS011;4064;48.132;11.366;2023-02-15T08:10:29;15.33;;;13.10;;
8042;SDS011;4064;48.132;11.366;2023-02-15T08:13:13;14.30;;;12.80;;
8042;SDS011;4064;48.132;11.366;2023-02-15T08:15:39;15.47;;;13.17;;
8042;SDS011;4064;48.132;11.366;2023-02-15T08:18:04;17.13;;;14.00;;
8042;SDS011;4064;48.132;11.366;2023-02-15T08:20:30;14.57;;;11.00;;
8042;SDS011;4064;48.132;11.366;2023-02-15T08:22:56;13.60;;;11.60;;
8042;SDS011;4064;48.132;11.366;2023-02-15T08:25:21;11.63;;;10.43;;
8042;SDS011;4064;48.132;11.366;2023-02-15T08:27:47;13.20;;;11.90;;
8042;SDS011;4064;48.132;11.366;2023-02-15T08:30:14;14.88;;;11.48;;
8042;SDS011;4064;48.132;11.366;2023-02-15T08:32:39;13.43;;;12.03;;
8042;SDS011;4064;48.132;11.366;2023-02-15T08:35:05;12.97;;;11.57;;
8042;SDS011;4064;48.132;11.366;2023-02-15T08:37:31;15.38;;;12.27;;
8042;SDS011;4064;48.132;11.366;2023-02-15T08:39:57;14.03;;;12.73;;
8042;SDS011;4064;48.132;11.366;2023-02-15T08:42:22;13.50;;;12.17;;
8042;SDS011;4064;48.132;11.366;2023-02-15T08:44:48;16.47;;;13.67;;
8042;SDS011;4064;48.132;11.366;2023-02-15T08:47:15;19.60;;;13.88;;
8042;SDS011;4064;48.132;11.366;2023-02-15T08:49:41;18.80;;;15.00;;
8042;SDS011;4064;48.132;11.366;2023-02-15T08:52:06;17.30;;;15.00;;
8042;SDS011;4064;48.132;11.366;2023-02-15T08:54:32;15.70;;;14.13;;
8042;SDS011;4064;48.132;11.366;2023-02-15T08:56:58;17.70;;;15.13;;
8042;SDS011;4064;48.132;11.366;2023-02-15T08:59:24;15.95;;;13.77;;
8042;SDS011;4064;48.132;11.366;2023-02-15T09:01:52;17.48;;;13.52;;
8042;SDS011;4064;48.132;11.366;2023-02-15T09:04:19;18.02;;;14.30;;
8042;SDS011;4064;48.132;11.366;2023-02-15T09:06:46;16.02;;;13.98;;
8042;SDS011;4064;48.132;11.366;2023-02-15T09:09:12;17.23;;;14.73;;
8042;SDS011;4064;48.132;11.366;2023-02-15T09:11:39;16.93;;;14.40;;
8042;SDS011;4064;48.132;11.366;2023-02-15T09:14:08;14.75;;;12.80;;
8042;SDS011;4064;48.132;11.366;2023-02-15T09:16:38;16.92;;;14.80;;
8042;SDS011;4064;48.132;11.366;2023-02-15T09:19:04;19.15;;;14.95;;
8042;SDS011;4064;48.132;11.366;2023-02-15T09:21:30;17.73;;;15.85;;
8042;SDS011;4064;48.132;11.366;2023-02-15T09:23:58;19.70;;;15.20;;
8042;SDS011;4064;48.132;11.366;2023-02-15T09:26:29;18.92;;;15.25;;
8042;SDS011;4064;48.132;11.366;2023-02-15T09:28:58;19.30;;;15.18;;
8042;SDS011;4064;48.132;11.366;2023-02-15T09:31:28;17.70;;;14.65;;
8042;SDS011;4064;48.132;11.366;2023-02-15T09:33:59;17.20;;;14.80;;
8042;SDS011;4064;48.132;11.366;2023-02-15T09:36:29;17.83;;;14.45;;
8042;SDS011;4064;48.132;11.366;2023-02-15T09:39:15;19.10;;;16.35;;
8042;SDS011;4064;48.132;11.366;2023-02-15T09:41:50;16.13;;;13.90;;
8042;SDS011;4064;48.132;11.366;2023-02-15T09:44:54;16.08;;;14.45;;
8042;SDS011;4064;48.132;11.366;2023-02-15T09:53:18;14.40;;;13.00;;
8042;SDS011;4064;48.132;11.366;2023-02-15T09:56:19;15.17;;;13.80;;
8042;SDS011;4064;48.132;11.366;2023-02-15T10:01:52;14.23;;;12.87;;
8042;SDS011;4064;48.132;11.366;2023-02-15T10:12:29;17.43;;;15.30;;
8042;SDS011;4064;48.132;11.366;2023-02-15T10:21:30;13.23;;;11.97;;
8042;SDS011;4064;48.132;11.366;2023-02-15T10:26:21;16.93;;;14.60;;
8042;SDS011;4064;48.132;11.366;2023-02-15T10:29:00;24.03;;;19.47;;
8042;SDS011;4064;48.132;11.366;2023-02-15T10:42:03;27.47;;;21.70;;
8042;SDS011;4064;48.132;11.366;2023-02-15T10:50:26;23.67;;;21.27;;
8042;SDS011;4064;48.132;11.366;2023-02-15T10:55:45;27.80;;;21.93;;
8042;SDS011;4064;48.132;11.366;2023-02-15T10:58:33;28.13;;;22.00;;
8042;SDS011;4064;48.132;11.366;2023-02-15T11:01:18;24.63;;;21.13;;
8042;SDS011;4064;48.132;11.366;2023-02-15T11:06:57;26.57;;;21.27;;
8042;SDS011;4064;48.132;11.366;2023-02-15T11:13:09;25.43;;;21.00;;
8042;SDS011;4064;48.132;11.366;2023-02-15T11:23:24;22.23;;;19.87;;
8042;SDS011;4064;48.132;11.366;2023-02-15T11:25:54;21.43;;;18.80;;
8042;SDS011;4064;48.132;11.366;2023-02-15T11:28:31;22.33;;;18.83;;
8042;SDS011;4064;48.132;11.366;2023-02-15T11:31:21;20.27;;;18.10;;
8042;SDS011;4064;48.132;11.366;2023-02-15T11:33:52;21.83;;;19.17;;
8042;SDS011;4064;48.132;11.366;2023-02-15T11:36:26;24.20;;;18.73;;
8042;SDS011;4064;48.132;11.366;2023-02-15T11:38:58;20.87;;;18.53;;
8042;SDS011;4064;48.132;11.366;2023-02-15T11:41:29;21.70;;;18.37;;
8042;SDS011;4064;48.132;11.366;2023-02-15T11:44:02;19.67;;;17.57;;
8042;SDS011;4064;48.132;11.366;2023-02-15T11:46:40;26.13;;;19.17;;
8042;SDS011;4064;48.132;11.366;2023-02-15T11:49:48;22.90;;;18.10;;
8042;SDS011;4064;48.132;11.366;2023-02-15T11:51:59;18.70;;;16.80;;
8042;SDS011;4064;48.132;11.366;2023-02-15T11:54:33;20.00;;;17.97;;
8042;SDS011;4064;48.132;11.366;2023-02-15T11:57:15;19.70;;;17.43;;
8042;SDS011;4064;48.132;11.366;2023-02-15T11:59:46;20.10;;;18.00;;
8042;SDS011;4064;48.132;11.366;2023-02-15T12:02:23;19.90;;;17.80;;
8042;SDS011;4064;48.132;11.366;2023-02-15T12:04:55;21.63;;;18.43;;
8042;SDS011;4064;48.132;11.366;2023-02-15T12:09:59;21.70;;;17.77;;
8042;SDS011;4064;48.132;11.366;2023-02-15T12:12:37;23.20;;;20.80;;
8042;SDS011;4064;48.132;11.366;2023-02-15T12:15:04;23.93;;;19.73;;
8042;SDS011;4064;48.132;11.366;2023-02-15T12:17:35;21.50;;;19.30;;
8042;SDS011;4064;48.132;11.366;2023-02-15T12:22:47;21.67;;;19.47;;
8042;SDS011;4064;48.132;11.366;2023-02-15T12:25:53;22.87;;;20.43;;
8042;SDS011;4064;48.132;11.366;2023-02-15T12:28:32;22.70;;;19.53;;
8042;SDS011;4064;48.132;11.366;2023-02-15T12:31:02;22.40;;;19.47;;
8042;SDS011;4064;48.132;11.366;2023-02-15T12:33:35;25.87;;;20.83;;
8042;SDS011;4064;48.132;11.366;2023-02-15T12:36:11;23.60;;;21.20;;
8042;SDS011;4064;48.132;11.366;2023-02-15T12:38:40;23.23;;;19.97;;
8042;SDS011;4064;48.132;11.366;2023-02-15T12:41:26;21.53;;;19.30;;
8042;SDS011;4064;48.132;11.366;2023-02-15T12:44:14;26.13;;;20.67;;
8042;SDS011;4064;48.132;11.366;2023-02-15T12:49:40;24.93;;;19.90;;
8042;SDS011;4064;48.132;11.366;2023-02-15T12:54:45;24.20;;;21.60;;
8042;SDS011;4064;48.132;11.366;2023-02-15T12:57:25;22.60;;;20.10;;
8042;SDS011;4064;48.132;11.366;2023-02-15T13:07:48;26.23;;;20.07;;
8042;SDS011;4064;48.132;11.366;2023-02-15T13:10:20;21.97;;;19.63;;
8042;SDS011;4064;48.132;11.366;2023-02-15T13:12:58;22.97;;;20.47;;
8042;SDS011;4064;48.132;11.366;2023-02-15T13:15:38;21.07;;;19.00;;
8042;SDS011;4064;48.132;11.366;2023-02-15T13:18:10;21.40;;;19.20;;
8042;SDS011;4064;48.132;11.366;2023-02-15T13:20:40;22.13;;;17.90;;
8042;SDS011;4064;48.132;11.366;2023-02-15T13:23:18;21.80;;;18.63;;
8042;SDS011;4064;48.132;11.366;2023-02-15T13:25:52;24.70;;;21.00;;
8042;SDS011;4064;48.132;11.366;2023-02-15T13:28:26;22.63;;;20.27;;
8042;SDS011;4064;48.132;11.366;2023-02-15T13:31:18;29.73;;;21.23;;
8042;SDS011;4064;48.132;11.366;2023-02-15T14:01:34;22.67;;;20.37;;
8042;SDS011;4064;48.132;11.366;2023-02-15T14:04:12;24.57;;;22.07;;
8042;SDS011;4064;48.132;11.366;2023-02-15T14:09:40;23.80;;;21.30;;
8042;SDS011;4064;48.132;11.366;2023-02-15T14:15:29;21.67;;;19.50;;
8042;SDS011;4064;48.132;11.366;2023-02-15T14:21:05;22.87;;;20.47;;
8042;SDS011;4064;48.132;11.366;2023-02-15T14:28:57;26.37;;;22.77;;
8042;SDS011;4064;48.132;11.366;2023-02-15T14:31:39;24.40;;;21.33;;
8042;SDS011;4064;48.132;11.366;2023-02-15T14:34:16;28.00;;;22.60;;
8042;SDS011;4064;48.132;11.366;2023-02-15T14:36:47;25.10;;;21.67;;
8042;SDS011;4064;48.132;11.366;2023-02-15T14:42:34;27.73;;;21.70;;
8042;SDS011;4064;48.132;11.366;2023-02-15T14:48:36;29.23;;;20.83;;
8042;SDS011;4064;48.132;11.366;2023-02-15T14:50:46;23.53;;;20.63;;
8042;SDS011;4064;48.132;11.366;2023-02-15T15:01:14;25.33;;;22.70;;
8042;SDS011;4064;48.132;11.366;2023-02-15T15:03:49;23.70;;;21.10;;
8042;SDS011;4064;48.132;11.366;2023-02-15T15:06:38;25.80;;;20.77;;
8042;SDS011;4064;48.132;11.366;2023-02-15T15:09:25;23.17;;;20.67;;
8042;SDS011;4064;48.132;11.366;2023-02-15T15:11:53;26.13;;;22.47;;
8042;SDS011;4064;48.132;11.366;2023-02-15T15:14:37;26.43;;;21.27;;
8042;SDS011;4064;48.132;11.366;2023-02-15T15:17:05;28.20;;;21.73;;
8042;SDS011;4064;48.132;11.366;2023-02-15T15:22:24;25.17;;;22.47;;
8042;SDS011;4064;48.132;11.366;2023-02-15T15:24:52;29.57;;;22.30;;
8042;SDS011;4064;48.132;11.366;2023-02-15T15:32:59;24.80;;;20.30;;
8042;SDS011;4064;48.132;11.366;2023-02-15T15:41:47;25.20;;;22.40;;
8042;SDS011;4064;48.132;11.366;2023-02-15T15:47:42;27.40;;;22.40;;
8042;SDS011;4064;48.132;11.366;2023-02-15T15:50:23;26.10;;;22.03;;
8042;SDS011;4064;48.132;11.366;2023-02-15T15:52:50;30.10;;;22.83;;
8042;SDS011;4064;48.132;11.366;2023-02-15T15:55:23;36.47;;;24.43;;
8042;SDS011;4064;48.132;11.366;2023-02-15T15:57:59;27.67;;;24.20;;
8042;SDS011;4064;48.132;11.366;2023-02-15T16:00:34;24.63;;;21.40;;
8042;SDS011;4064;48.132;11.366;2023-02-15T16:03:12;32.22;;;23.75;;
8042;SDS011;4064;48.132;11.366;2023-02-15T16:05:49;27.67;;;21.95;;
8042;SDS011;4064;48.132;11.366;2023-02-15T16:10:56;28.77;;;23.58;;
8042;SDS011;4064;48.132;11.366;2023-02-15T16:13:22;25.25;;;21.88;;
8042;SDS011;4064;48.132;11.366;2023-02-15T16:15:50;24.70;;;21.42;;
8042;SDS011;4064;48.132;11.366;2023-02-15T16:18:19;27.15;;;22.92;;
8042;SDS011;4064;48.132;11.366;2023-02-15T16:20:54;27.40;;;23.70;;
8042;SDS011;4064;48.132;11.366;2023-02-15T16:28:32;27.40;;;22.77;;
8042;SDS011;4064;48.132;11.366;2023-02-15T16:31:05;27.60;;;22.57;;
8042;SDS011;4064;48.132;11.366;2023-02-15T16:33:36;31.83;;;25.20;;
8042;SDS011;4064;48.132;11.366;2023-02-15T16:36:04;25.13;;;21.88;;
8042;SDS011;4064;48.132;11.366;2023-02-15T16:41:07;28.25;;;22.75;;
8042;SDS011;4064;48.132;11.366;2023-02-15T16:43:42;30.35;;;23.38;;
8042;SDS011;4064;48.132;11.366;2023-02-15T16:46:15;27.70;;;24.63;;
8042;SDS011;4064;48.132;11.366;2023-02-15T16:48:52;35.30;;;24.73;;
8042;SDS011;4064;48.132;11.366;2023-02-15T16:51:24;29.30;;;23.88;;
8042;SDS011;4064;48.132;11.366;2023-02-15T16:53:52;34.33;;;26.42;;
8042;SDS011;4064;48.132;11.366;2023-02-15T16:56:24;26.63;;;23.70;;
8042;SDS011;4064;48.132;11.366;2023-02-15T16:58:53;26.50;;;22.20;;
8042;SDS011;4064;48.132;11.366;2023-02-15T17:01:20;26.60;;;22.90;;
8042;SDS011;4064;48.132;11.366;2023-02-15T17:03:50;27.90;;;23.80;;
8042;SDS011;4064;48.132;11.366;2023-02-15T17:06:21;31.90;;;25.20;;
8042;SDS011;4064;48.132;11.366;2023-02-15T17:08:50;29.75;;;24.10;;
8042;SDS011;4064;48.132;11.366;2023-02-15T17:11:20;31.98;;;25.77;;
8042;SDS011;4064;48.132;11.366;2023-02-15T17:16:40;28.65;;;23.70;;
8042;SDS011;4064;48.132;11.366;2023-02-15T17:19:15;29.30;;;25.15;;
8042;SDS011;4064;48.132;11.366;2023-02-15T17:21:57;31.50;;;25.52;;
8042;SDS011;4064;48.132;11.366;2023-02-15T17:24:33;32.00;;;22.17;;
8042;SDS011;4064;48.132;11.366;2023-02-15T17:27:04;27.58;;;24.27;;
8042;SDS011;4064;48.132;11.366;2023-02-15T17:29:36;30.02;;;24.30;;
8042;SDS011;4064;48.132;11.366;2023-02-15T17:32:26;32.65;;;26.02;;
8042;SDS011;4064;48.132;11.366;2023-02-15T17:40:23;30.30;;;25.93;;
8042;SDS011;4064;48.132;11.366;2023-02-15T17:42:57;35.92;;;25.60;;
8042;SDS011;4064;48.132;11.366;2023-02-15T17:45:46;33.70;;;28.43;;
8042;SDS011;4064;48.132;11.366;2023-02-15T17:48:32;36.60;;;28.98;;
8042;SDS011;4064;48.132;11.366;2023-02-15T17:51:00;49.28;;;29.42;;
8042;SDS011;4064;48.132;11.366;2023-02-15T17:53:27;36.80;;;28.80;;
8042;SDS011;4064;48.132;11.366;2023-02-15T17:55:53;39.15;;;30.63;;
8042;SDS011;4064;48.132;11.366;2023-02-15T17:58:19;43.97;;;31.80;;
8042;SDS011;4064;48.132;11.366;2023-02-15T18:00:56;40.65;;;33.80;;
8042;SDS011;4064;48.132;11.366;2023-02-15T18:03:46;40.65;;;32.47;;
8042;SDS011;4064;48.132;11.366;2023-02-15T18:06:36;43.50;;;34.15;;
8042;SDS011;4064;48.132;11.366;2023-02-15T18:09:22;51.00;;;34.75;;
8042;SDS011;4064;48.132;11.366;2023-02-15T18:12:18;40.15;;;30.08;;
8042;SDS011;4064;48.132;11.366;2023-02-15T18:14:49;45.33;;;33.25;;
8042;SDS011;4064;48.132;11.366;2023-02-15T18:17:15;44.50;;;34.05;;
8042;SDS011;4064;48.132;11.366;2023-02-15T18:19:42;58.30;;;39.35;;
8042;SDS011;4064;48.132;11.366;2023-02-15T18:22:10;55.00;;;39.70;;
8042;SDS011;4064;48.132;11.366;2023-02-15T18:24:37;40.53;;;28.95;;
8042;SDS011;4064;48.132;11.366;2023-02-15T18:27:03;34.95;;;28.30;;